Time;durP1;ratioP1;P1;durP2;ratioP2;P2;SDS_P1;SDS_P2;PMS_P1;PMS_P2;Temp;Humidity;BMP_temperature;BMP_pressure;BME280_temperature;BME280_humidity;BME280_pressure;Samples;Min_cycle;Max_cycle;Signal;HPM_P1;HPM_P2
2022/07/08 00:01:07;;;;;;;7.00;1.70;;;;;;;14.25;88.05;102994.34;5028394;28;20485;-60
2022/07/08 00:03:32;;;;;;;8.43;2.08;;;;;;;14.13;88.77;102993.72;5019231;28;20454;-60
2022/07/08 00:05:57;;;;;;;10.73;2.22;;;;;;;14.08;89.24;102992.59;5022062;28;20112;-60
2022/07/08 00:08:23;;;;;;;6.78;1.92;;;;;;;14.04;89.24;102996.75;5028225;28;20026;-60
2022/07/08 00:10:48;;;;;;;8.15;2.50;;;;;;;13.98;90.15;102999.00;5028699;28;20485;-60
2022/07/08 00:13:14;;;;;;;9.95;2.00;;;;;;;13.95;90.24;102994.56;5027798;28;20366;-60
2022/07/08 00:15:39;;;;;;;8.50;1.98;;;;;;;13.89;90.97;102995.13;5018686;28;20029;-60
2022/07/08 00:18:05;;;;;;;6.40;1.80;;;;;;;13.89;91.34;102997.72;5024051;28;20388;-61
2022/07/08 00:20:30;;;;;;;7.63;2.45;;;;;;;13.89;90.94;102995.13;5028204;28;20116;-61
2022/07/08 00:22:57;;;;;;;6.20;1.67;;;;;;;13.89;91.49;103002.94;5028352;28;20477;-61
2022/07/08 00:25:22;;;;;;;8.23;2.33;;;;;;;13.90;91.26;103002.13;5014469;28;20029;-60
2022/07/08 00:27:47;;;;;;;11.75;2.45;;;;;;;13.91;91.68;103000.41;5028988;28;20400;-60
2022/07/08 00:30:13;;;;;;;11.27;2.05;;;;;;;13.91;91.95;102992.59;5028484;28;20036;-61
2022/07/08 00:32:38;;;;;;;6.38;1.95;;;;;;;13.90;92.14;102996.94;5027912;28;20107;-60
2022/07/08 00:35:04;;;;;;;10.25;2.22;;;;;;;13.88;92.18;103000.25;5025993;28;20036;-60
2022/07/08 00:37:30;;;;;;;7.38;2.35;;;;;;;13.85;92.55;103003.56;5016170;28;20025;-59
2022/07/08 00:39:55;;;;;;;8.55;2.30;;;;;;;13.81;92.40;102992.09;5027747;28;20056;-60
2022/07/08 00:42:20;;;;;;;6.75;2.00;;;;;;;13.81;92.60;102992.09;5022017;28;20042;-60
2022/07/08 00:44:46;;;;;;;5.22;1.75;;;;;;;13.81;92.44;102988.63;5019662;28;20104;-60
2022/07/08 00:47:11;;;;;;;7.25;2.13;;;;;;;13.78;92.45;102991.94;5026819;28;20526;-60
2022/07/08 00:49:36;;;;;;;8.35;1.90;;;;;;;13.74;92.60;102995.22;5027553;28;20033;-60
2022/07/08 00:52:02;;;;;;;7.05;2.22;;;;;;;13.70;93.22;102998.47;5027577;28;20476;-60
2022/07/08 00:54:28;;;;;;;5.72;2.22;;;;;;;13.64;93.72;103004.25;5027643;28;20140;-60
2022/07/08 00:56:54;;;;;;;5.43;2.00;;;;;;;13.59;94.73;103010.00;5027088;28;20541;-60
2022/07/08 00:59:20;;;;;;;8.90;2.05;;;;;;;13.57;94.84;103007.31;5027945;28;20029;-60
2022/07/08 01:01:45;;;;;;;6.07;1.90;;;;;;;13.55;94.92;103008.94;5027069;28;20036;-60
2022/07/08 01:04:11;;;;;;;11.02;2.50;;;;;;;13.45;95.88;103011.00;5014197;28;20025;-60
2022/07/08 01:06:36;;;;;;;9.10;2.28;;;;;;;13.41;96.32;103006.47;5026935;28;20397;-60
2022/07/08 01:09:02;;;;;;;9.32;2.17;;;;;;;13.35;96.41;103006.09;5027313;28;20032;-60
2022/07/08 01:11:28;;;;;;;7.95;2.80;;;;;;;13.31;96.65;103005.03;5027488;28;20052;-60
2022/07/08 01:13:54;;;;;;;7.70;2.20;;;;;;;13.27;97.01;103017.81;5027260;28;20560;-60
2022/07/08 01:16:20;;;;;;;8.70;2.22;;;;;;;13.24;96.83;103007.25;5027339;28;20552;-60
2022/07/08 01:18:45;;;;;;;6.68;2.10;;;;;;;13.20;97.32;103007.03;5027382;28;20033;-60
2022/07/08 01:21:11;;;;;;;6.43;2.53;;;;;;;13.16;96.97;103007.72;5027352;28;20069;-60
2022/07/08 01:23:36;;;;;;;8.00;2.55;;;;;;;13.06;97.66;103011.47;5026551;28;20492;-60
2022/07/08 01:26:09;;;;;;;7.47;2.75;;;;;;;13.02;97.67;103006.03;5026942;28;20033;-60
2022/07/08 01:28:37;;;;;;;8.13;2.20;;;;;;;12.94;98.23;102997.78;5026731;28;20033;-60
2022/07/08 01:31:03;;;;;;;6.75;2.67;;;;;;;12.87;98.64;103000.84;5027286;28;20029;-60
2022/07/08 01:33:28;;;;;;;5.82;2.33;;;;;;;12.82;99.37;103009.31;5026115;28;20033;-61
2022/07/08 01:35:54;;;;;;;5.65;2.92;;;;;;;12.77;99.25;103000.31;5016283;28;20044;-60
2022/07/08 01:38:19;;;;;;;9.15;2.85;;;;;;;12.72;99.63;102996.53;5026265;28;20032;-60
2022/07/08 01:40:44;;;;;;;8.50;2.60;;;;;;;12.67;99.73;103004.09;5026869;28;20061;-60
2022/07/08 01:43:10;;;;;;;8.35;3.15;;;;;;;12.61;100.00;103004.63;5027252;28;20033;-60
2022/07/08 01:45:35;;;;;;;6.78;2.28;;;;;;;12.59;100.00;103005.38;5027037;28;20418;-60
2022/07/08 01:48:00;;;;;;;6.63;2.30;;;;;;;12.53;100.00;103000.69;5026630;28;20041;-60
2022/07/08 01:50:26;;;;;;;6.35;2.50;;;;;;;12.49;100.00;102998.72;5026872;28;20405;-61
2022/07/08 01:52:52;;;;;;;7.30;2.35;;;;;;;12.43;100.00;102988.84;5027493;28;20504;-60
2022/07/08 01:55:18;;;;;;;7.88;2.40;;;;;;;12.40;100.00;102988.69;5026967;28;20065;-60
2022/07/08 01:57:43;;;;;;;8.30;2.88;;;;;;;12.36;100.00;102986.69;5026261;28;20048;-60
2022/07/08 02:00:09;;;;;;;8.20;3.55;;;;;;;12.30;100.00;102995.06;5026439;28;20029;-60
2022/07/08 02:02:34;;;;;;;8.18;2.75;;;;;;;12.25;100.00;102988.66;5026269;28;20029;-59
2022/07/08 02:04:59;;;;;;;5.72;2.75;;;;;;;12.24;100.00;102990.38;5013656;28;20033;-60
2022/07/08 02:07:24;;;;;;;7.53;2.20;;;;;;;12.22;100.00;102994.59;5026618;28;20029;-60
2022/07/08 02:09:50;;;;;;;7.38;2.50;;;;;;;12.20;100.00;102990.09;5012325;28;20031;-60
2022/07/08 02:12:18;;;;;;;10.00;3.13;;;;;;;12.18;100.00;102991.72;5028293;28;20021;-60
2022/07/08 02:14:44;;;;;;;9.15;2.78;;;;;;;12.11;100.00;103000.81;5029879;28;20458;-60
2022/07/08 02:17:09;;;;;;;3.53;1.50;;;;;;;12.09;100.00;103008.53;5029961;28;20116;-61
2022/07/08 02:19:35;;;;;;;6.90;2.45;;;;;;;12.08;100.00;103011.00;5030357;28;20385;-60
2022/07/08 02:22:01;;;;;;;7.47;2.58;;;;;;;12.03;100.00;103007.25;5024161;28;20096;-59
2022/07/08 02:24:26;;;;;;;8.07;2.60;;;;;;;11.98;100.00;103000.06;5023036;28;20022;-61
2022/07/08 02:26:52;;;;;;;9.25;3.25;;;;;;;11.98;100.00;103009.56;5029792;28;20076;-59
2022/07/08 02:29:17;;;;;;;6.80;2.63;;;;;;;11.95;100.00;102999.88;5030116;28;20036;-60
2022/07/08 02:31:43;;;;;;;8.02;2.80;;;;;;;11.95;100.00;103009.34;5028888;28;20029;-60
2022/07/08 02:34:08;;;;;;;4.90;2.63;;;;;;;11.97;100.00;103011.25;5029804;28;20068;-60
2022/07/08 02:36:33;;;;;;;6.40;2.58;;;;;;;11.96;100.00;102999.06;5029222;28;20449;-60
2022/07/08 02:38:59;;;;;;;5.30;2.90;;;;;;;11.95;100.00;103004.16;5029495;28;20187;-60
2022/07/08 02:41:24;;;;;;;5.97;2.80;;;;;;;11.95;100.00;103004.16;5029984;28;20026;-59
2022/07/08 02:43:49;;;;;;;7.45;2.75;;;;;;;11.91;100.00;103005.69;5030375;28;20166;-60
2022/07/08 02:46:15;;;;;;;10.98;2.65;;;;;;;11.89;100.00;103015.09;5030193;28;20035;-60
2022/07/08 02:48:40;;;;;;;8.38;3.10;;;;;;;11.92;100.00;103009.19;5029836;28;20420;-60
2022/07/08 02:51:05;;;;;;;5.60;2.90;;;;;;;11.92;100.00;103004.91;5030296;28;20078;-60
2022/07/08 02:53:31;;;;;;;7.32;2.45;;;;;;;11.91;100.00;103008.28;5029447;28;20033;-59
2022/07/08 02:55:56;;;;;;;9.98;2.80;;;;;;;11.92;100.00;103004.91;5029616;28;20499;-59
2022/07/08 02:58:21;;;;;;;8.48;2.88;;;;;;;11.90;100.00;102990.91;5029907;28;20029;-60
2022/07/08 03:00:47;;;;;;;10.25;2.75;;;;;;;11.89;100.00;103003.00;5029818;28;20389;-60
2022/07/08 03:03:12;;;;;;;8.60;2.80;;;;;;;11.89;100.00;103000.38;5023799;28;20568;-60
2022/07/08 03:05:37;;;;;;;8.68;2.60;;;;;;;11.89;100.00;103009.91;5009722;28;20036;-60
2022/07/08 03:08:03;;;;;;;5.15;2.65;;;;;;;11.86;100.00;103007.09;5012929;28;20473;-60
2022/07/08 03:10:28;;;;;;;6.38;2.95;;;;;;;11.83;100.00;103012.13;5029193;28;20032;-60
2022/07/08 03:12:54;;;;;;;9.90;2.70;;;;;;;11.77;100.00;103016.13;5028757;28;20377;-59
2022/07/08 03:15:19;;;;;;;7.90;3.15;;;;;;;11.74;100.00;103017.63;5028073;28;20122;-60
2022/07/08 03:17:45;;;;;;;9.27;2.67;;;;;;;11.70;100.00;103011.34;5027835;28;20497;-59
2022/07/08 03:20:10;;;;;;;7.68;2.90;;;;;;;11.68;100.00;103010.34;5027849;28;20026;-60
2022/07/08 03:22:35;;;;;;;7.68;2.50;;;;;;;11.69;100.00;103012.19;5027361;28;20033;-59
2022/07/08 03:25:01;;;;;;;5.82;3.13;;;;;;;11.71;100.00;103002.75;5026587;28;20029;-60
2022/07/08 03:27:26;;;;;;;9.85;3.20;;;;;;;11.70;100.00;103008.75;5027321;28;20030;-60
2022/07/08 03:29:51;;;;;;;8.90;2.90;;;;;;;11.65;100.00;103010.19;5027732;28;20036;-60
2022/07/08 03:32:17;;;;;;;9.15;2.95;;;;;;;11.62;100.00;103012.59;5027067;28;20036;-59
2022/07/08 03:34:42;;;;;;;5.57;3.10;;;;;;;11.58;100.00;103013.19;5027740;28;20025;-60
2022/07/08 03:37:09;;;;;;;8.50;2.75;;;;;;;11.56;100.00;103018.28;5028188;28;20060;-60
2022/07/08 03:39:34;;;;;;;6.32;3.13;;;;;;;11.53;100.00;103018.97;5029033;28;20406;-61
2022/07/08 03:41:59;;;;;;;9.27;3.25;;;;;;;11.53;100.00;103026.78;5028406;28;20025;-61
2022/07/08 03:44:25;;;;;;;9.77;3.08;;;;;;;11.52;100.00;103025.00;5028794;28;20048;-60
2022/07/08 03:46:50;;;;;;;5.82;3.10;;;;;;;11.49;100.00;103009.22;5028708;28;20033;-61
2022/07/08 03:49:15;;;;;;;7.05;3.20;;;;;;;11.49;100.00;103023.91;5028735;28;20513;-62
2022/07/08 03:51:41;;;;;;;10.50;3.85;;;;;;;11.49;100.00;103027.41;5028153;28;20029;-61
2022/07/08 03:54:06;;;;;;;6.72;2.50;;;;;;;11.50;100.00;103021.41;5028388;28;20018;-61
2022/07/08 03:56:31;;;;;;;6.32;2.80;;;;;;;11.51;100.00;103023.19;5028876;28;20197;-61
2022/07/08 03:58:56;;;;;;;8.63;3.67;;;;;;;11.50;100.00;103024.00;5028580;28;20082;-61
2022/07/08 04:01:22;;;;;;;5.53;2.75;;;;;;;11.50;100.00;103020.50;5027411;28;20100;-60
2022/07/08 04:03:47;;;;;;;6.45;2.88;;;;;;;11.48;100.00;103022.09;5018043;28;20539;-61
2022/07/08 04:06:13;;;;;;;7.70;2.97;;;;;;;11.50;100.00;103025.69;5024336;28;20026;-60
2022/07/08 04:08:38;;;;;;;5.80;3.35;;;;;;;11.47;100.00;103016.00;5028189;28;20028;-60
2022/07/08 04:11:03;;;;;;;7.93;3.03;;;;;;;11.48;100.00;103022.09;5028300;28;20034;-60
2022/07/08 04:13:29;;;;;;;8.13;3.10;;;;;;;11.49;100.00;103019.63;5028183;28;20022;-61
2022/07/08 04:15:56;;;;;;;9.23;3.20;;;;;;;11.49;100.00;103014.41;5027566;28;20068;-60
2022/07/08 04:18:21;;;;;;;5.68;2.83;;;;;;;11.49;100.00;103019.63;5027798;28;20037;-60
2022/07/08 04:20:47;;;;;;;7.28;2.80;;;;;;;11.50;100.00;103026.59;5027930;28;20029;-61
2022/07/08 04:23:12;;;;;;;7.47;2.38;;;;;;;11.52;100.00;103025.00;5027824;28;20052;-60
2022/07/08 04:25:38;;;;;;;5.78;2.90;;;;;;;11.55;100.00;103024.28;5028036;28;20100;-59
2022/07/08 04:28:03;;;;;;;9.55;3.28;;;;;;;11.58;100.00;103027.09;5027822;28;20057;-60
2022/07/08 04:30:29;;;;;;;6.32;3.22;;;;;;;11.60;100.00;103021.97;5027774;28;20096;-60
2022/07/08 04:32:54;;;;;;;8.77;2.80;;;;;;;11.63;100.00;103029.94;5027437;28;20115;-59
2022/07/08 04:35:19;;;;;;;9.60;2.80;;;;;;;11.66;100.00;103024.94;5026810;28;20156;-60
2022/07/08 04:37:45;;;;;;;10.23;3.25;;;;;;;11.69;100.00;103027.75;5027403;28;20480;-60
2022/07/08 04:40:10;;;;;;;7.45;3.22;;;;;;;11.72;100.00;103027.03;5027354;28;20401;-60
2022/07/08 04:42:36;;;;;;;6.03;2.70;;;;;;;11.76;100.00;103034.22;5027370;28;20075;-60
2022/07/08 04:45:03;;;;;;;9.23;2.72;;;;;;;11.83;100.00;103040.69;5027152;28;20116;-60
2022/07/08 04:47:28;;;;;;;7.15;2.63;;;;;;;11.89;100.00;103046.28;5013989;28;20116;-59
2022/07/08 04:49:53;;;;;;;7.60;3.15;;;;;;;11.95;100.00;103044.03;5027725;28;20116;-60
2022/07/08 04:52:19;;;;;;;11.48;3.20;;;;;;;11.99;100.00;103051.22;5026729;28;20362;-60
2022/07/08 04:54:44;;;;;;;7.32;2.75;;;;;;;12.06;100.00;103049.91;5017732;28;20033;-59
2022/07/08 04:57:09;;;;;;;7.45;3.15;;;;;;;12.15;100.00;103060.00;5009672;28;20045;-60
2022/07/08 04:59:35;;;;;;;9.45;3.05;;;;;;;12.23;100.00;103061.34;5011582;28;20026;-60
2022/07/08 05:02:00;;;;;;;8.52;3.88;;;;;;;12.31;100.00;103060.91;5019857;28;20037;-59
2022/07/08 05:04:26;;;;;;;7.95;2.88;;;;;;;12.39;100.00;103070.09;5009687;28;20125;-60
2022/07/08 05:06:51;;;;;;;6.47;3.17;;;;;;;12.48;100.00;103059.34;5027214;28;20442;-60
2022/07/08 05:09:17;;;;;;;8.52;3.53;;;;;;;12.57;100.00;103059.91;5026825;28;20651;-59
2022/07/08 05:11:42;;;;;;;10.90;3.58;;;;;;;12.65;100.00;103057.72;5027393;28;20417;-60
2022/07/08 05:14:12;;;;;;;10.00;3.90;;;;;;;12.74;100.00;103059.97;5023563;28;20516;-60
2022/07/08 05:16:38;;;;;;;6.18;3.70;;;;;;;12.83;100.00;103067.41;5016413;28;20081;-59
2022/07/08 05:19:04;;;;;;;9.15;4.10;;;;;;;12.90;100.00;103066.97;5007376;28;20032;-60
2022/07/08 05:21:29;;;;;;;8.45;3.85;;;;;;;12.97;100.00;103066.50;5006329;28;20040;-61
2022/07/08 05:23:54;;;;;;;10.07;3.15;;;;;;;13.05;100.00;103069.56;5015227;28;20022;-60
2022/07/08 05:26:20;;;;;;;8.32;3.85;;;;;;;13.13;100.00;103071.72;5017684;28;20022;-61
2022/07/08 05:28:45;;;;;;;9.95;3.90;;;;;;;13.24;100.00;103074.94;5017662;28;21249;-59
2022/07/08 05:31:10;;;;;;;10.80;5.10;;;;;;;13.31;100.00;103077.94;5007988;28;20083;-61
2022/07/08 05:33:36;;;;;;;10.63;4.28;;;;;;;13.41;100.00;103078.47;5020084;28;20044;-60
2022/07/08 05:36:03;;;;;;;9.57;4.50;;;;;;;13.51;100.00;103085.09;5010950;28;20025;-60
2022/07/08 05:38:28;;;;;;;8.45;4.22;;;;;;;13.61;100.00;103086.53;5021663;28;20493;-61
2022/07/08 05:40:54;;;;;;;10.55;4.57;;;;;;;13.71;100.00;103093.16;5015089;28;20049;-60
2022/07/08 05:43:19;;;;;;;8.52;4.15;;;;;;;13.81;100.00;103085.03;5023543;28;20338;-60
2022/07/08 05:45:44;;;;;;;8.68;4.20;;;;;;;13.93;100.00;103087.41;5017853;28;20296;-60
2022/07/08 05:48:10;;;;;;;10.65;4.53;;;;;;;14.05;99.34;103090.66;5020101;28;20128;-61
2022/07/08 05:50:35;;;;;;;9.05;3.25;;;;;;;14.17;97.93;103090.41;5028508;28;20021;-60
2022/07/08 05:53:01;;;;;;;11.23;3.53;;;;;;;14.32;97.65;103088.56;5029661;28;20440;-61
2022/07/08 05:55:26;;;;;;;7.95;2.90;;;;;;;14.45;97.20;103098.78;5025255;28;20033;-61
2022/07/08 05:57:52;;;;;;;8.18;3.13;;;;;;;14.62;96.76;103090.94;5013426;28;20036;-61
2022/07/08 06:00:19;;;;;;;7.68;2.88;;;;;;;14.76;96.28;103097.75;5010894;28;20056;-60
2022/07/08 06:02:44;;;;;;;6.88;2.70;;;;;;;14.91;94.41;103099.41;5012199;28;20073;-61
2022/07/08 06:05:10;;;;;;;9.10;2.42;;;;;;;15.05;93.57;103099.16;5030395;28;20508;-60
2022/07/08 06:07:36;;;;;;;5.50;2.25;;;;;;;15.21;92.54;103096.50;5015740;28;20124;-61
2022/07/08 06:10:02;;;;;;;5.57;2.78;;;;;;;15.38;92.07;103099.00;5010297;28;20029;-61
2022/07/08 06:12:27;;;;;;;7.05;2.80;;;;;;;15.53;91.48;103098.84;5010156;28;20019;-61
2022/07/08 06:14:52;;;;;;;8.68;2.40;;;;;;;15.69;90.17;103102.19;5010441;28;20489;-61
2022/07/08 06:17:18;;;;;;;7.05;2.22;;;;;;;15.84;89.18;103100.31;5009994;28;20114;-61
2022/07/08 06:19:43;;;;;;;7.63;2.45;;;;;;;16.00;88.26;103105.34;5009782;28;20493;-61
2022/07/08 06:22:09;;;;;;;7.00;2.20;;;;;;;16.14;87.13;103108.59;5017506;28;20029;-60
2022/07/08 06:24:34;;;;;;;12.73;3.03;;;;;;;16.22;86.97;103107.22;5029279;28;20025;-60
2022/07/08 06:27:00;;;;;;;5.07;1.83;;;;;;;16.36;85.92;103106.94;5010722;28;20026;-60
2022/07/08 06:29:25;;;;;;;8.43;1.90;;;;;;;16.52;84.85;103105.88;5010080;28;20018;-60
2022/07/08 06:31:50;;;;;;;6.10;2.15;;;;;;;16.69;84.74;103101.38;5009540;28;20036;-61
2022/07/08 06:34:15;;;;;;;7.80;1.98;;;;;;;16.84;83.74;103101.13;5009907;28;20022;-61
2022/07/08 06:36:41;;;;;;;4.55;1.50;;;;;;;16.98;82.35;103106.94;5009718;28;20036;-60
2022/07/08 06:39:08;;;;;;;4.88;1.70;;;;;;;17.11;81.45;103102.22;5009374;28;20022;-61
2022/07/08 06:41:34;;;;;;;6.35;1.58;;;;;;;17.24;81.10;103099.28;5010160;28;20453;-61
2022/07/08 06:43:59;;;;;;;8.75;2.33;;;;;;;17.37;79.05;103098.06;5009880;28;20053;-61
2022/07/08 06:46:24;;;;;;;3.85;1.30;;;;;;;17.50;79.28;103109.88;5021119;28;20032;-61
2022/07/08 06:48:50;;;;;;;3.80;1.20;;;;;;;17.64;78.21;103114.78;5017096;28;20030;-62
2022/07/08 06:51:15;;;;;;;5.93;1.50;;;;;;;17.76;78.49;103114.34;5019927;28;20072;-61
2022/07/08 06:56:24;;;;;;;5.20;1.83;;;;;;;18.08;77.07;103114.66;5020048;28;20421;-62
2022/07/08 06:58:49;;;;;;;6.28;1.60;;;;;;;18.14;75.33;103111.41;5008722;28;20027;-62
2022/07/08 07:01:15;;;;;;;4.97;1.33;;;;;;;18.29;75.79;103115.44;5009518;28;20028;-61
2022/07/08 07:03:41;;;;;;;3.60;1.40;;;;;;;18.41;74.64;103110.63;5012730;28;20080;-61
2022/07/08 07:06:06;;;;;;;8.27;2.40;;;;;;;18.39;74.24;103116.66;5024946;28;20025;-62
2022/07/08 07:08:32;;;;;;;4.50;1.38;;;;;;;18.44;74.90;103115.97;5028308;28;20519;-61
2022/07/08 07:10:57;;;;;;;4.00;1.33;;;;;;;18.62;75.73;103114.81;5015702;28;20539;-61
2022/07/08 07:13:23;;;;;;;7.25;1.48;;;;;;;18.59;72.71;103112.09;5012628;28;20025;-62
2022/07/08 07:15:48;;;;;;;7.70;1.65;;;;;;;18.48;72.14;103111.72;5017769;28;20025;-62
2022/07/08 07:18:13;;;;;;;3.95;1.38;;;;;;;18.63;73.17;103116.63;5009851;28;21201;-62
2022/07/08 07:20:39;;;;;;;7.22;1.70;;;;;;;18.82;72.57;103112.88;5009323;28;20109;-62
2022/07/08 07:23:04;;;;;;;6.18;1.85;;;;;;;19.05;72.72;103114.50;5009384;28;20465;-62
2022/07/08 07:25:29;;;;;;;5.55;1.10;;;;;;;19.22;71.39;103112.44;5009394;28;20025;-62
2022/07/08 07:27:54;;;;;;;6.43;1.45;;;;;;;19.44;70.02;103119.28;5009502;28;20026;-62
2022/07/08 07:30:24;;;;;;;8.65;2.13;;;;;;;19.47;67.62;103120.19;5008542;28;20026;-62
2022/07/08 07:32:49;;;;;;;7.43;1.55;;;;;;;19.27;68.96;103113.47;5008771;28;20018;-62
2022/07/08 07:35:15;;;;;;;4.97;1.42;;;;;;;19.24;69.74;103117.75;5017816;28;20037;-62
2022/07/08 07:37:40;;;;;;;7.15;1.55;;;;;;;19.22;67.62;103117.69;5026574;28;20025;-61
2022/07/08 07:40:06;;;;;;;5.70;1.30;;;;;;;19.33;69.73;103115.41;5024700;28;20072;-60
2022/07/08 07:42:32;;;;;;;5.25;1.48;;;;;;;19.56;69.26;103113.50;5026298;28;20036;-61
2022/07/08 07:44:57;;;;;;;4.78;1.42;;;;;;;19.70;65.95;103110.38;5026899;28;20017;-61
2022/07/08 07:47:22;;;;;;;7.68;2.25;;;;;;;19.88;67.50;103109.13;5022502;28;20018;-61
2022/07/08 07:49:47;;;;;;;6.97;1.45;;;;;;;19.96;66.23;103112.91;5008514;28;20022;-61
2022/07/08 07:52:13;;;;;;;5.53;1.70;;;;;;;20.12;66.02;103108.09;5008491;28;20029;-62
2022/07/08 07:54:38;;;;;;;6.82;1.58;;;;;;;20.30;65.59;103107.72;5008482;28;20045;-61
2022/07/08 07:57:04;;;;;;;7.00;1.58;;;;;;;20.35;64.98;103111.34;5007999;28;20075;-61
2022/07/08 07:59:29;;;;;;;3.78;1.15;;;;;;;20.50;63.27;103102.09;5008581;28;20057;-61
2022/07/08 08:01:54;;;;;;;4.55;1.30;;;;;;;20.76;63.76;103101.84;5008468;28;20040;-61
2022/07/08 08:04:20;;;;;;;6.20;1.00;;;;;;;20.85;62.93;103098.59;5021013;28;20022;-61
2022/07/08 08:06:45;;;;;;;7.15;1.35;;;;;;;20.95;63.38;103104.97;5021298;28;20419;-62
2022/07/08 08:09:10;;;;;;;6.32;1.55;;;;;;;21.06;63.69;103105.25;5008243;28;20070;-62
2022/07/08 08:11:36;;;;;;;4.60;1.52;;;;;;;21.23;62.58;103108.25;5007934;28;20152;-62
2022/07/08 08:14:01;;;;;;;5.47;1.73;;;;;;;21.41;61.06;103109.53;5008879;28;20018;-61
2022/07/08 08:16:26;;;;;;;4.45;1.33;;;;;;;21.58;61.75;103105.56;5008501;28;20036;-63
2022/07/08 08:18:52;;;;;;;6.97;1.25;;;;;;;21.83;60.57;103119.28;5013246;28;20025;-62
2022/07/08 08:21:17;;;;;;;6.97;1.38;;;;;;;22.02;60.48;103109.09;5007313;28;20014;-63
2022/07/08 08:23:42;;;;;;;6.40;1.40;;;;;;;22.03;59.93;103113.53;5007366;28;20358;-62
2022/07/08 08:26:07;;;;;;;4.95;1.10;;;;;;;22.02;57.94;103113.50;5007992;28;20052;-62
2022/07/08 08:28:33;;;;;;;4.88;1.02;;;;;;;22.23;57.87;103110.38;5006963;28;20079;-63
2022/07/08 08:30:58;;;;;;;5.78;1.08;;;;;;;22.34;56.16;103112.31;5022842;28;20564;-63
2022/07/08 08:33:23;;;;;;;4.50;1.45;;;;;;;22.39;56.78;103122.13;5011730;28;20026;-62
2022/07/08 08:35:48;;;;;;;5.13;1.77;;;;;;;22.48;56.69;103118.75;5009657;28;20489;-62
2022/07/08 08:38:15;;;;;;;7.80;1.95;;;;;;;22.63;56.46;103115.50;5026911;28;20025;-62
2022/07/08 08:40:42;;;;;;;4.68;1.65;;;;;;;22.76;57.61;103111.31;5010978;28;20184;-62
2022/07/08 08:43:07;;;;;;;5.70;1.45;;;;;;;22.98;56.39;103119.59;5017461;28;20508;-62
2022/07/08 08:45:34;;;;;;;5.75;1.42;;;;;;;22.99;54.05;103113.44;5009572;28;20025;-62
2022/07/08 08:48:05;;;;;;;7.15;1.63;;;;;;;23.00;54.34;103112.59;5017808;28;20505;-63
2022/07/08 08:53:16;;;;;;;6.60;1.85;;;;;;;22.88;54.34;103104.47;5020817;28;20535;-63
2022/07/08 08:55:45;;;;;;;5.18;1.33;;;;;;;22.91;50.60;103101.88;5015426;28;20025;-62
2022/07/08 08:58:11;;;;;;;4.85;1.13;;;;;;;22.94;51.75;103107.19;5018353;28;20029;-62
2022/07/08 09:00:37;;;;;;;7.35;1.65;;;;;;;22.95;52.75;103100.16;5024625;28;20029;-62
2022/07/08 09:03:02;;;;;;;7.20;1.65;;;;;;;22.72;51.69;103088.34;5019621;28;20351;-62
2022/07/08 09:05:28;;;;;;;5.32;1.75;;;;;;;22.59;54.37;103092.53;5021146;28;20083;-63
2022/07/08 09:07:54;;;;;;;6.13;1.45;;;;;;;22.86;56.32;103095.63;5017642;28;20037;-62
2022/07/08 09:10:20;;;;;;;6.30;1.65;;;;;;;22.99;55.35;103092.28;5007892;28;20029;-63
2022/07/08 09:13:04;;;;;;;4.78;1.20;;;;;;;23.05;53.47;103095.91;5007278;28;20014;-62
2022/07/08 09:15:34;;;;;;;4.38;1.60;;;;;;;23.06;52.87;103093.31;5007589;28;20030;-61
2022/07/08 09:18:01;;;;;;;5.63;1.70;;;;;;;23.23;52.27;103093.53;5007326;28;20033;-62
2022/07/08 09:20:36;;;;;;;6.18;1.90;;;;;;;23.40;52.95;103098.19;5010489;28;20036;-62
2022/07/08 09:23:01;;;;;;;5.40;1.38;;;;;;;23.66;53.18;103100.28;5008989;28;20029;-60
2022/07/08 09:25:26;;;;;;;6.30;1.25;;;;;;;23.59;51.13;103101.97;5009177;28;20025;-62
2022/07/08 09:27:52;;;;;;;3.65;1.15;;;;;;;23.68;51.53;103095.91;5016878;28;20021;-62
2022/07/08 09:30:17;;;;;;;4.60;1.52;;;;;;;23.20;49.72;103095.25;5010772;28;20025;-62
2022/07/08 09:33:03;;;;;;;8.82;1.40;;;;;;;22.83;52.29;103099.09;5015498;28;20452;-62
2022/07/08 09:35:36;;;;;;;5.03;1.50;;;;;;;22.93;52.61;103096.59;5010357;28;20040;-61
2022/07/08 09:38:09;;;;;;;6.93;1.60;;;;;;;22.97;52.52;103094.03;5010622;28;20057;-61
2022/07/08 09:40:35;;;;;;;5.78;1.60;;;;;;;23.06;52.83;103087.13;5010176;28;20450;-61
2022/07/08 09:43:12;;;;;;;7.53;1.65;;;;;;;23.18;52.60;103086.41;5009592;28;20026;-61
2022/07/08 09:45:37;;;;;;;6.10;1.52;;;;;;;23.35;53.21;103086.66;5009203;28;20045;-61
2022/07/08 09:48:08;;;;;;;6.55;1.50;;;;;;;23.22;50.54;103089.13;5009767;28;20025;-61
2022/07/08 09:50:33;;;;;;;;;;;;;;;22.99;52.66;103081.72;5015485;28;20076;-60
2022/07/08 09:52:59;;;;;;;6.28;1.85;;;;;;;23.10;52.04;103086.28;5010000;28;20205;-61
2022/07/08 09:55:31;;;;;;;5.55;1.70;;;;;;;23.08;52.17;103093.31;5010027;28;20280;-61
2022/07/08 09:57:58;;;;;;;5.45;1.10;;;;;;;23.03;53.82;103088.84;5011010;28;20085;-61
2022/07/08 10:00:23;;;;;;;5.82;1.67;;;;;;;22.94;52.56;103099.25;5010515;28;20540;-62
2022/07/08 10:02:49;;;;;;;3.47;1.17;;;;;;;23.07;54.99;103091.53;5010816;28;20030;-62
2022/07/08 10:05:15;;;;;;;3.58;1.20;;;;;;;23.30;54.91;103097.16;5019415;28;20036;-62
2022/07/08 10:07:40;;;;;;;4.82;1.13;;;;;;;23.40;52.57;103098.19;5030718;28;20021;-61
2022/07/08 10:10:06;;;;;;;5.53;1.95;;;;;;;22.94;52.82;103088.69;5030239;28;20643;-62
2022/07/08 10:12:32;;;;;;;7.22;2.08;;;;;;;23.05;54.08;103095.91;5024463;28;20374;-60
2022/07/08 10:14:57;;;;;;;5.65;1.20;;;;;;;23.17;55.55;103096.06;5023824;28;20026;-58
2022/07/08 10:17:27;;;;;;;8.00;1.50;;;;;;;23.37;54.15;103093.72;5020469;28;20026;-60
2022/07/08 10:19:54;;;;;;;5.25;1.60;;;;;;;23.35;52.86;103102.53;5019630;28;20026;-60
2022/07/08 10:22:20;;;;;;;5.32;1.15;;;;;;;23.61;53.52;103105.53;5020481;28;20037;-61
2022/07/08 10:24:47;;;;;;;130.38;116.47;;;;;;;24.06;54.11;103094.59;5011649;28;20516;-61
2022/07/08 10:27:12;;;;;;;4.13;2.22;;;;;;;25.14;52.21;103098.19;5012976;28;20049;-60
2022/07/08 10:29:39;;;;;;;2.90;1.35;;;;;;;25.62;50.03;103104.59;5014712;28;20057;-59
2022/07/08 10:32:22;;;;;;;3.88;1.30;;;;;;;25.94;48.40;103105.63;5017478;28;20035;-60
2022/07/08 10:35:07;;;;;;;6.82;1.80;;;;;;;25.81;46.19;103100.28;5023291;28;20451;-61
2022/07/08 10:37:57;;;;;;;3.38;1.08;;;;;;;25.83;47.65;103098.53;5017594;28;20044;-61
2022/07/08 10:40:50;;;;;;;14.00;12.75;;;;;;;26.43;46.11;103085.34;5024931;28;20041;-60
2022/07/08 10:43:18;;;;;;;4.85;1.60;;;;;;;26.71;44.77;103082.69;5025493;28;20044;-60
2022/07/08 10:46:11;;;;;;;4.88;1.35;;;;;;;26.64;42.78;103080.94;5026638;28;20467;-60
2022/07/08 10:48:39;;;;;;;3.88;1.27;;;;;;;26.58;44.51;103082.72;5027462;28;20384;-61
2022/07/08 10:51:05;;;;;;;5.75;1.25;;;;;;;26.51;45.35;103078.28;5026416;28;20021;-60
2022/07/08 10:53:52;;;;;;;5.60;1.23;;;;;;;26.68;46.43;103082.72;5018015;28;20568;-60
2022/07/08 10:56:50;;;;;;;4.13;1.13;;;;;;;26.36;45.28;103079.16;5011343;28;20833;-60
2022/07/08 10:59:20;;;;;;;5.47;1.30;;;;;;;26.09;46.51;103084.41;5028150;28;20032;-60
2022/07/08 11:01:54;;;;;;;6.10;1.50;;;;;;;25.79;47.00;103086.13;5019973;28;20076;-60
2022/07/08 11:04:21;;;;;;;3.95;1.35;;;;;;;25.46;47.94;103088.63;5025748;28;20026;-61
2022/07/08 11:06:47;;;;;;;3.50;1.27;;;;;;;25.33;49.79;103087.66;5031261;28;20034;-60
2022/07/08 11:09:16;;;;;;;2.80;1.02;;;;;;;25.04;49.08;103085.75;5017714;28;20052;-60
2022/07/08 11:11:44;;;;;;;3.95;1.38;;;;;;;24.96;50.89;103087.44;5029951;28;20825;-60
2022/07/08 11:14:12;;;;;;;5.30;1.45;;;;;;;24.85;50.08;103074.97;5030793;28;20256;-61
2022/07/08 11:16:38;;;;;;;5.35;1.10;;;;;;;24.93;51.23;103077.72;5031119;28;20362;-61
2022/07/08 11:19:05;;;;;;;4.65;1.40;;;;;;;25.28;51.58;103084.09;5009511;28;20033;-60
2022/07/08 11:21:31;;;;;;;3.47;1.40;;;;;;;25.54;51.04;103078.03;5023802;28;20393;-60
2022/07/08 11:23:57;;;;;;;4.72;1.45;;;;;;;25.70;50.43;103080.78;5008689;28;20022;-61